Time;durP1;ratioP1;P1;durP2;ratioP2;P2;SDS_P1;SDS_P2;PMS_P1;PMS_P2;Temp;Humidity;BMP_temperature;BMP_pressure;BME280_temperature;BME280_humidity;BME280_pressure;Samples;Min_cycle;Max_cycle;Signal;HPM_P1;HPM_P2
2022/06/16 00:00:18;;;;;;;8.87;3.23;;;;;;;14.38;65.83;100751.84;1437469;91;21501;-84
2022/06/16 00:02:47;;;;;;;;;;;;;;;14.31;66.74;100746.86;1442208;91;22477;-84
2022/06/16 00:05:17;;;;;;;5.73;1.90;;;;;;;14.19;67.23;100746.84;1435987;90;20294;-83
2022/06/16 00:07:43;;;;;;;3.55;2.10;;;;;;;14.11;66.39;100742.83;1443290;90;21436;-84
2022/06/16 00:10:11;;;;;;;7.23;2.57;;;;;;;14.05;66.82;100743.48;1445134;90;21398;-84
2022/06/16 00:12:38;;;;;;;5.70;2.20;;;;;;;14.00;67.19;100738.63;1430692;90;21494;-83
2022/06/16 00:15:07;;;;;;;6.43;2.67;;;;;;;13.97;68.68;100739.78;1448055;90;22483;-84
2022/06/16 00:17:34;;;;;;;15.87;3.43;;;;;;;13.98;67.44;100744.61;1448876;90;21510;-85
2022/06/16 00:20:01;;;;;;;2.63;2.00;;;;;;;13.96;67.11;100745.29;1446984;90;22197;-84
2022/06/16 00:22:28;;;;;;;4.57;2.30;;;;;;;13.91;68.24;100740.44;1444032;89;21442;-85
2022/06/16 00:24:54;;;;;;;6.37;2.43;;;;;;;13.87;68.64;100743.10;1443640;90;21479;-85
2022/06/16 00:27:20;;;;;;;7.23;2.27;;;;;;;13.82;69.42;100737.92;1426913;90;21509;-85
2022/06/16 00:29:46;;;;;;;3.83;2.40;;;;;;;13.76;68.60;100740.23;1434695;91;21450;-85
2022/06/16 00:32:12;;;;;;;4.00;2.43;;;;;;;13.70;69.24;100744.03;1429120;90;21486;-85
2022/06/16 00:34:39;;;;;;;5.20;2.33;;;;;;;13.64;69.48;100737.53;1427051;90;21568;-86
2022/06/16 00:37:05;;;;;;;5.70;1.57;;;;;;;13.62;69.10;100739.50;1432558;90;21413;-86
2022/06/16 00:39:31;;;;;;;4.53;2.10;;;;;;;13.58;69.29;100742.16;1405424;91;22033;-83
2022/06/16 00:42:15;;;;;;;8.00;2.57;;;;;;;13.51;68.91;100739.78;1428561;91;21642;-83
2022/06/16 00:44:45;;;;;;;9.47;2.43;;;;;;;13.41;69.30;100737.25;1427152;90;22955;-83
2022/06/16 00:47:12;;;;;;;6.08;2.10;;;;;;;13.31;70.15;100741.34;1433518;90;21287;-84
2022/06/16 00:49:43;;;;;;;5.33;2.37;;;;;;;13.22;70.11;100740.10;1434532;91;22299;-83
2022/06/16 00:52:18;;;;;;;9.60;2.40;;;;;;;13.14;70.11;100745.36;1432057;91;21472;-83
2022/06/16 00:54:54;;;;;;;5.57;2.00;;;;;;;13.08;70.87;100739.67;1424562;91;21755;-83
2022/06/16 00:57:25;;;;;;;8.03;2.10;;;;;;;13.03;70.64;100737.14;1422104;91;21404;-83
2022/06/16 00:59:52;;;;;;;;;;;;;;;12.98;71.33;100732.81;1431479;91;21610;-84
2022/06/16 01:02:18;;;;;;;9.83;1.73;;;;;;;12.94;71.77;100732.27;1434976;90;20309;-83
2022/06/16 01:04:53;;;;;;;6.93;2.77;;;;;;;12.94;72.52;100726.95;1431356;91;21383;-83
2022/06/16 01:07:31;;;;;;;4.37;2.10;;;;;;;12.97;71.72;100731.95;1430270;91;21383;-83
2022/06/16 01:09:59;;;;;;;5.47;2.20;;;;;;;12.96;73.13;100731.63;1437606;91;22337;-83
2022/06/16 01:15:56;;;;;;;3.60;2.20;;;;;;;12.91;72.16;100730.42;1428943;91;22432;-83
2022/06/16 01:18:43;;;;;;;4.77;2.30;;;;;;;12.86;72.60;100726.92;1425085;90;21443;-83
2022/06/16 01:21:30;;;;;;;4.47;2.20;;;;;;;12.81;73.32;100726.55;1393509;93;21512;-83
2022/06/16 01:24:56;;;;;;;2.87;1.90;;;;;;;12.76;73.46;100726.17;1410656;92;21457;-84
2022/06/16 01:27:36;;;;;;;8.20;2.33;;;;;;;12.76;73.19;100727.00;1406019;91;21450;-83
2022/06/16 01:30:15;;;;;;;7.58;2.37;;;;;;;12.75;73.26;100727.17;1443575;90;22581;-88
2022/06/16 01:32:53;;;;;;;5.63;1.90;;;;;;;12.75;72.49;100732.48;1410009;93;23493;-88
2022/06/16 01:35:30;;;;;;;6.63;2.07;;;;;;;12.72;73.51;100730.14;1450291;90;23131;-88
2022/06/16 01:38:14;;;;;;;5.73;2.23;;;;;;;12.70;73.85;100721.48;1447566;90;21457;-84
2022/06/16 01:40:54;;;;;;;4.53;3.40;;;;;;;12.62;73.41;100723.06;1446793;90;21405;-84
2022/06/16 01:43:31;;;;;;;5.83;2.62;;;;;;;12.57;74.08;100728.50;1440076;90;21612;-83
2022/06/16 01:46:15;;;;;;;2.57;2.27;;;;;;;12.52;74.19;100727.65;1435735;90;21398;-84
2022/06/16 01:48:45;;;;;;;8.40;2.73;;;;;;;12.51;74.28;100725.95;1424327;90;21464;-84
2022/06/16 01:51:35;;;;;;;5.83;2.72;;;;;;;12.50;75.67;100726.13;1402528;93;22382;-83
2022/06/16 01:54:13;;;;;;;6.97;3.17;;;;;;;12.47;74.93;100729.92;1412402;91;23445;-84
2022/06/16 01:56:51;;;;;;;4.23;2.40;;;;;;;12.45;74.99;100727.91;1431364;91;21510;-84
2022/06/16 01:59:28;;;;;;;5.27;2.53;;;;;;;12.43;74.05;100731.22;1430498;91;22249;-84
2022/06/16 02:02:00;;;;;;;2.93;2.33;;;;;;;12.38;74.28;100726.36;1386151;94;21514;-84
2022/06/16 02:04:37;;;;;;;5.13;2.53;;;;;;;12.36;74.02;100722.19;1418634;90;22136;-84
2022/06/16 02:07:07;;;;;;;4.07;2.33;;;;;;;12.36;74.54;100728.82;1442278;90;22495;-85
2022/06/16 02:09:42;;;;;;;3.25;2.27;;;;;;;12.36;74.24;100724.84;1439743;90;21545;-87
2022/06/16 02:12:55;;;;;;;7.60;2.73;;;;;;;12.36;74.53;100727.49;1424415;91;21546;-84
2022/06/16 02:14:45;;;;;;;2.93;2.20;;;;;;;12.34;74.83;100720.16;1397072;93;21590;-84
2022/06/16 02:17:12;;;;;;;9.60;3.55;;;;;;;12.34;75.25;100724.15;1426543;90;22410;-84
2022/06/16 02:19:39;;;;;;;4.67;2.43;;;;;;;12.31;75.71;100723.12;1427363;91;22381;-84
2022/06/16 02:22:06;;;;;;;4.50;3.30;;;;;;;12.29;75.00;100719.81;1426477;90;21582;-83
2022/06/16 02:24:32;;;;;;;8.17;2.87;;;;;;;12.24;74.77;100716.27;1401237;92;23675;-83
2022/06/16 02:27:00;;;;;;;4.73;2.63;;;;;;;12.22;74.75;100718.73;1442513;90;21628;-85
2022/06/16 02:29:37;;;;;;;5.00;2.30;;;;;;;12.18;76.83;100721.69;1427710;90;21603;-85
2022/06/16 02:32:24;;;;;;;8.33;2.37;;;;;;;12.21;75.79;100721.88;1441074;90;21516;-85
2022/06/16 02:35:23;;;;;;;13.10;2.97;;;;;;;12.20;76.03;100722.88;1414428;92;21668;-84
2022/06/16 02:38:29;;;;;;;4.57;2.40;;;;;;;12.14;76.95;100722.98;1438622;91;21390;-87
2022/06/16 02:41:07;;;;;;;7.30;2.50;;;;;;;12.12;75.69;100734.23;1432288;91;22418;-86
2022/06/16 02:44:01;;;;;;;8.43;3.53;;;;;;;12.08;76.05;100738.65;1432834;90;21479;-87
2022/06/16 02:46:53;;;;;;;8.87;2.77;;;;;;;12.04;75.57;100734.14;1438543;91;21515;-88
2022/06/16 02:49:25;;;;;;;6.27;2.90;;;;;;;12.02;75.67;100733.45;1439411;90;21738;-89
2022/06/16 02:52:17;;;;;;;7.43;2.20;;;;;;;12.00;76.21;100732.79;1428731;91;21568;-88
2022/06/16 02:55:00;;;;;;;4.67;2.10;;;;;;;11.95;77.21;100730.57;1421560;91;21420;-88
2022/06/16 02:57:31;;;;;;;5.80;3.10;;;;;;;11.96;76.21;100732.72;1404848;93;21917;-89
2022/06/16 03:00:02;;;;;;;5.13;2.77;;;;;;;11.94;76.98;100729.41;1432891;90;21615;-87
2022/06/16 03:02:29;;;;;;;6.23;2.70;;;;;;;11.91;77.85;100733.66;1439452;91;23400;-87
2022/06/16 03:05:00;;;;;;;5.80;2.67;;;;;;;11.90;76.05;100737.30;1425990;91;21531;-87
2022/06/16 03:07:28;;;;;;;7.57;2.90;;;;;;;11.89;77.34;100740.95;1435042;91;21560;-86
2022/06/16 03:09:54;;;;;;;8.83;2.90;;;;;;;11.88;76.51;100733.95;1433301;91;21664;-88
2022/06/16 03:12:20;;;;;;;6.73;2.77;;;;;;;11.87;76.88;100737.60;1438987;91;22527;-84
2022/06/16 03:14:47;;;;;;;5.23;2.80;;;;;;;11.90;77.17;100741.28;1442804;91;21450;-84
2022/06/16 03:17:13;;;;;;;3.17;2.47;;;;;;;11.95;77.48;100736.38;1436803;91;21562;-85
2022/06/16 03:19:40;;;;;;;5.67;2.77;;;;;;;12.05;76.82;100743.77;1437464;91;22462;-85
2022/06/16 03:22:07;;;;;;;9.40;2.70;;;;;;;12.12;76.39;100743.52;1433283;90;21563;-85
2022/06/16 03:24:33;;;;;;;8.50;2.97;;;;;;;12.19;75.94;100739.77;1431782;91;21611;-84
2022/06/16 03:27:00;;;;;;;12.77;4.03;;;;;;;12.25;76.20;100740.48;1411038;92;22528;-85
2022/06/16 03:29:26;;;;;;;5.53;3.00;;;;;;;12.31;75.83;100743.03;1412717;92;21435;-85
2022/06/16 03:31:56;;;;;;;8.77;4.30;;;;;;;12.37;75.70;100735.78;1413437;92;21419;-85
2022/06/16 03:34:23;;;;;;;10.27;3.00;;;;;;;12.45;75.25;100737.19;1411632;92;21737;-84
2022/06/16 03:36:50;;;;;;;8.43;3.20;;;;;;;12.53;75.35;100731.13;1433545;90;21579;-83
2022/06/16 03:39:17;;;;;;;10.80;3.57;;;;;;;12.59;76.31;100730.02;1428228;91;21428;-85
2022/06/16 03:41:43;;;;;;;7.23;3.17;;;;;;;12.68;75.79;100732.74;1426358;91;21434;-85
2022/06/16 03:44:10;;;;;;;14.20;3.40;;;;;;;12.75;74.99;100738.63;1432294;91;21671;-84
2022/06/16 03:46:37;;;;;;;9.87;3.87;;;;;;;12.79;75.41;100721.87;1453124;90;22440;-84
2022/06/16 03:49:05;;;;;;;6.93;3.77;;;;;;;12.85;74.83;100725.23;1432404;91;21258;-89
2022/06/16 03:51:31;;;;;;;8.37;3.20;;;;;;;12.92;74.34;100727.63;1430232;91;21450;-86
2022/06/16 03:53:57;;;;;;;13.30;3.77;;;;;;;12.98;74.20;100733.65;1435558;91;22228;-86
2022/06/16 03:56:23;;;;;;;6.10;3.40;;;;;;;13.04;74.03;100729.03;1432502;91;21457;-86
2022/06/16 03:58:55;;;;;;;6.67;3.70;;;;;;;13.12;73.70;100723.41;1431990;91;22913;-86
2022/06/16 04:01:21;;;;;;;8.40;3.33;;;;;;;13.20;74.02;100728.78;1429143;91;22386;-86
2022/06/16 04:03:59;;;;;;;4.13;2.83;;;;;;;13.31;73.84;100732.53;1437668;91;21368;-86
2022/06/16 04:06:29;;;;;;;6.43;3.57;;;;;;;13.40;73.90;100727.59;1436570;91;22418;-87
2022/06/16 04:08:56;;;;;;;9.80;3.47;;;;;;;13.51;73.45;100730.48;1442818;89;21578;-88
2022/06/16 04:11:28;;;;;;;8.20;3.40;;;;;;;13.59;73.33;100731.84;1443045;90;21398;-87
2022/06/16 04:14:02;;;;;;;11.17;3.50;;;;;;;13.67;72.95;100735.87;1442625;90;21398;-88
2022/06/16 04:16:32;;;;;;;11.30;4.03;;;;;;;13.76;72.83;100739.40;1447282;90;21464;-86
2022/06/16 04:18:59;;;;;;;8.83;3.40;;;;;;;13.82;72.30;100736.59;1452251;90;21316;-86
2022/06/16 04:21:26;;;;;;;5.73;3.80;;;;;;;13.87;72.16;100733.79;1440446;90;21383;-87
2022/06/16 04:23:53;;;;;;;12.23;4.00;;;;;;;13.96;72.01;100742.13;1443022;90;21338;-86
2022/06/16 04:26:20;;;;;;;10.37;4.50;;;;;;;14.05;71.94;100739.49;1437069;91;22358;-84
2022/06/16 04:28:46;;;;;;;10.67;3.23;;;;;;;14.13;71.74;100736.85;1435995;90;21450;-84
2022/06/16 04:31:13;;;;;;;6.03;3.30;;;;;;;14.21;72.09;100737.70;1441258;89;21443;-85
2022/06/16 04:33:39;;;;;;;10.60;3.27;;;;;;;14.33;71.88;100736.88;1449780;89;21450;-84
2022/06/16 04:36:07;;;;;;;7.73;3.43;;;;;;;14.45;71.46;100738.73;1427532;90;21494;-87
2022/06/16 04:38:34;;;;;;;12.93;4.00;;;;;;;14.55;71.32;100737.25;1410256;93;21450;-86
2022/06/16 04:41:00;;;;;;;9.67;4.20;;;;;;;14.64;71.21;100739.77;1411423;91;21361;-85
2022/06/16 04:43:27;;;;;;;8.73;3.40;;;;;;;14.75;70.66;100734.59;1433541;91;22565;-86
2022/06/16 04:45:53;;;;;;;14.40;3.67;;;;;;;14.86;70.19;100739.58;1435057;90;21656;-86
2022/06/16 04:48:19;;;;;;;23.90;4.80;;;;;;;14.93;69.67;100729.58;1433829;91;21480;-86
2022/06/16 04:50:45;;;;;;;9.13;3.23;;;;;;;14.99;69.40;100734.23;1434591;91;21442;-85
2022/06/16 04:53:11;;;;;;;6.77;2.77;;;;;;;15.12;69.25;100734.05;1441633;90;23457;-86
2022/06/16 04:55:38;;;;;;;5.83;3.07;;;;;;;15.22;68.82;100735.20;1389021;93;21393;-82
2022/06/16 04:58:05;;;;;;;10.37;3.50;;;;;;;15.37;69.02;100733.17;1445123;90;22315;-83
2022/06/16 05:00:32;;;;;;;8.80;2.67;;;;;;;15.50;68.13;100732.11;1449285;90;21520;-83
2022/06/16 05:02:58;;;;;;;5.13;2.87;;;;;;;15.60;67.55;100731.41;1433602;91;21578;-84
2022/06/16 05:05:25;;;;;;;8.23;3.30;;;;;;;15.73;67.20;100723.70;1431292;90;21415;-83
2022/06/16 05:07:51;;;;;;;11.13;4.20;;;;;;;15.89;67.02;100728.65;1384441;94;21487;-83
2022/06/16 05:10:17;;;;;;;7.60;2.60;;;;;;;15.96;66.14;100724.26;1389527;93;21638;-83
2022/06/16 05:12:43;;;;;;;9.30;2.77;;;;;;;16.07;65.98;100725.70;1418931;91;22434;-84
2022/06/16 05:15:10;;;;;;;9.37;3.40;;;;;;;16.16;65.70;100723.30;1433714;91;21473;-84
2022/06/16 05:17:36;;;;;;;5.87;3.30;;;;;;;16.31;65.46;100726.04;1445833;89;21434;-84
2022/06/16 05:20:04;;;;;;;5.40;3.00;;;;;;;16.44;65.60;100727.11;1409897;93;21447;-83
2022/06/16 05:22:30;;;;;;;11.57;3.23;;;;;;;16.59;65.38;100723.15;1408214;91;21377;-84
2022/06/16 05:24:56;;;;;;;4.43;3.13;;;;;;;16.68;64.25;100728.75;1425853;91;21442;-81
2022/06/16 05:27:22;;;;;;;8.63;3.00;;;;;;;16.83;64.67;100727.98;1434137;91;21428;-83
2022/06/16 05:29:48;;;;;;;9.50;2.80;;;;;;;16.94;63.90;100735.57;1438923;91;21361;-83
2022/06/16 05:32:14;;;;;;;25.43;3.90;;;;;;;17.08;63.85;100728.08;1432083;91;22469;-85
2022/06/16 05:34:42;;;;;;;16.13;3.70;;;;;;;17.23;63.23;100728.59;1432893;91;21523;-84
2022/06/16 05:37:08;;;;;;;8.17;3.20;;;;;;;17.34;62.60;100729.48;1428241;91;21449;-84
2022/06/16 05:39:35;;;;;;;7.77;3.27;;;;;;;17.49;62.45;100726.80;1433913;91;21428;-84
2022/06/16 05:42:01;;;;;;;8.17;3.10;;;;;;;17.61;61.55;100729.34;1429998;91;21413;-82
2022/06/16 05:44:27;;;;;;;7.07;3.00;;;;;;;17.75;61.50;100728.98;1443900;90;21656;-82
2022/06/16 05:46:53;;;;;;;7.90;3.27;;;;;;;17.91;61.22;100731.99;1449779;90;21383;-83
2022/06/16 05:49:21;;;;;;;12.93;3.50;;;;;;;18.04;60.05;100734.32;1443274;90;22358;-83
2022/06/16 05:51:48;;;;;;;8.17;3.33;;;;;;;18.19;59.88;100733.45;1435233;90;21405;-83
2022/06/16 05:54:14;;;;;;;7.83;3.20;;;;;;;18.31;59.54;100729.75;1429226;91;22278;-83
2022/06/16 05:56:40;;;;;;;11.47;3.83;;;;;;;18.44;59.32;100735.22;1391364;93;21474;-83
2022/06/16 05:59:06;;;;;;;11.67;3.30;;;;;;;18.56;58.42;100730.17;1456523;90;21419;-83
2022/06/16 06:01:32;;;;;;;7.20;3.03;;;;;;;18.61;57.90;100726.41;1405930;93;21309;-81
2022/06/16 06:03:58;;;;;;;8.93;2.93;;;;;;;18.79;58.36;100730.84;1423026;91;21458;-81
2022/06/16 06:06:24;;;;;;;6.20;3.00;;;;;;;18.95;57.29;100736.42;1432493;90;21451;-82
2022/06/16 06:17:20;;;;;;;6.03;2.70;;;;;;;19.60;54.84;100722.27;1430741;90;21502;-82
2022/06/16 06:19:46;;;;;;;7.72;2.95;;;;;;;19.78;54.42;100719.06;1440028;90;23486;-80
2022/06/16 06:22:19;;;;;;;11.78;3.10;;;;;;;19.93;53.94;100724.27;1445766;90;21427;-80
2022/06/16 06:24:48;;;;;;;8.83;3.00;;;;;;;20.06;53.03;100720.30;1446342;90;22426;-82
2022/06/16 06:27:32;;;;;;;6.25;2.87;;;;;;;20.21;52.94;100724.97;1425844;92;21310;-80
2022/06/16 06:29:59;;;;;;;7.75;2.33;;;;;;;20.31;51.24;100729.12;1405422;93;21378;-80
2022/06/16 06:32:26;;;;;;;10.05;3.50;;;;;;;20.44;51.32;100727.28;1422164;92;21369;-79
2022/06/16 06:34:53;;;;;;;7.30;2.60;;;;;;;20.60;51.07;100719.38;1423517;91;21568;-79
2022/06/16 06:37:23;;;;;;;8.88;2.22;;;;;;;20.76;51.32;100724.02;1404864;92;21340;-79
2022/06/16 06:39:51;;;;;;;12.07;3.10;;;;;;;20.89;49.19;100718.65;1424452;91;21450;-79
2022/06/16 06:42:18;;;;;;;7.85;2.27;;;;;;;20.88;48.32;100716.97;1423300;91;21435;-80
2022/06/16 06:44:45;;;;;;;18.85;4.45;;;;;;;20.84;45.98;100717.91;1423821;91;21413;-79
2022/06/16 06:47:28;;;;;;;4.65;2.27;;;;;;;20.96;48.37;100714.08;1399855;91;21407;-79
2022/06/16 06:49:54;;;;;;;6.42;2.67;;;;;;;21.12;48.04;100716.86;1429681;91;22110;-79
2022/06/16 06:52:21;;;;;;;10.70;2.70;;;;;;;21.30;47.71;100714.84;1424305;91;21441;-79
2022/06/16 06:54:48;;;;;;;7.45;3.62;;;;;;;21.45;47.04;100711.93;1437509;91;21465;-79
2022/06/16 06:57:24;;;;;;;6.85;2.02;;;;;;;21.63;46.55;100719.61;1415399;90;21658;-79
2022/06/16 06:59:51;;;;;;;9.83;2.42;;;;;;;21.71;45.61;100711.00;1418937;91;21478;-79
2022/06/16 07:02:18;;;;;;;17.00;2.47;;;;;;;21.87;44.95;100718.60;1440187;90;22633;-79
2022/06/16 07:04:44;;;;;;;10.30;3.70;;;;;;;21.96;44.58;100714.61;1441433;90;22647;-78
2022/06/16 07:07:22;;;;;;;4.90;2.22;;;;;;;22.09;43.93;100714.52;1433531;90;21590;-86
2022/06/16 07:09:48;;;;;;;10.70;3.37;;;;;;;22.02;40.68;100709.70;1426077;91;22437;-85
2022/06/16 07:12:15;;;;;;;6.08;2.08;;;;;;;22.14;43.74;100708.48;1358980;94;21524;-87
2022/06/16 07:14:49;;;;;;;6.35;2.62;;;;;;;22.33;44.14;100709.44;1416501;91;22358;-85
2022/06/16 07:17:20;;;;;;;7.28;2.47;;;;;;;22.69;44.09;100701.16;1482590;91;21400;-86
2022/06/16 07:19:46;;;;;;;8.83;2.22;;;;;;;22.69;44.09;100701.16;1446269;92;22184;-85
2022/06/16 07:22:12;;;;;;;8.80;2.47;;;;;;;22.83;43.27;100701.34;1407015;91;21369;-87
2022/06/16 07:24:39;;;;;;;5.12;2.30;;;;;;;23.02;43.56;100705.45;1418545;90;21458;-89
2022/06/16 07:27:06;;;;;;;14.05;3.33;;;;;;;23.19;42.98;100690.34;1435182;90;21405;-85
2022/06/16 07:29:33;;;;;;;9.35;2.37;;;;;;;23.30;42.24;100694.97;1436533;89;22358;-86
2022/06/16 07:31:59;;;;;;;7.78;2.95;;;;;;;23.42;42.23;100692.37;1433810;91;21807;-85
2022/06/16 07:34:27;;;;;;;8.80;2.20;;;;;;;23.51;41.13;100694.23;1429158;90;21523;-84
2022/06/16 07:36:53;;;;;;;10.10;2.52;;;;;;;23.53;41.62;100693.47;1445559;90;22401;-85
2022/06/16 07:39:20;;;;;;;5.62;2.52;;;;;;;23.61;40.46;100702.09;1444039;90;21493;-85
2022/06/16 07:41:46;;;;;;;5.28;1.90;;;;;;;23.70;41.89;100687.77;1387200;94;21468;-85
2022/06/16 07:44:15;;;;;;;6.83;2.60;;;;;;;23.87;42.11;100688.78;1411783;91;22798;-85
2022/06/16 07:46:44;;;;;;;8.63;2.70;;;;;;;24.01;41.55;100685.38;1415911;90;21569;-86
2022/06/16 07:49:14;;;;;;;10.10;3.05;;;;;;;24.15;41.21;100683.83;1429128;91;21572;-86
2022/06/16 07:51:42;;;;;;;6.87;2.50;;;;;;;24.15;39.78;100678.42;1428226;89;21605;-86
2022/06/16 07:54:12;;;;;;;13.38;3.00;;;;;;;24.13;40.04;100680.00;1439904;90;21590;-86
2022/06/16 07:56:38;;;;;;;12.50;2.65;;;;;;;24.27;41.14;100684.68;1437389;90;21383;-85
2022/06/16 07:59:04;;;;;;;11.45;2.45;;;;;;;24.43;40.45;100679.17;1424751;91;21420;-86
2022/06/16 08:01:30;;;;;;;7.33;2.47;;;;;;;24.57;40.36;100680.60;1420826;90;21435;-86
2022/06/16 08:03:57;;;;;;;9.60;2.92;;;;;;;24.69;40.26;100673.84;1430963;91;21398;-85
2022/06/16 08:06:26;;;;;;;8.20;2.42;;;;;;;24.81;39.72;100678.72;1432921;91;21586;-86
2022/06/16 08:08:51;;;;;;;13.08;3.22;;;;;;;24.94;39.86;100676.28;1430742;90;21672;-86
2022/06/16 08:14:05;;;;;;;10.05;2.22;;;;;;;25.19;38.50;100678.23;1433515;90;21442;-86
2022/06/16 08:16:33;;;;;;;7.22;2.30;;;;;;;25.33;38.91;100673.91;1433061;91;21472;-86
2022/06/16 08:19:03;;;;;;;10.53;2.27;;;;;;;25.46;38.34;100670.92;1434793;91;22274;-87
2022/06/16 08:21:29;;;;;;;11.20;2.40;;;;;;;25.36;36.77;100670.19;1432484;91;21568;-86
2022/06/16 08:23:56;;;;;;;10.53;2.15;;;;;;;25.43;37.83;100665.98;1444728;90;21406;-86
2022/06/16 08:26:23;;;;;;;7.25;2.37;;;;;;;25.50;37.33;100669.39;1452027;89;21515;-86
2022/06/16 08:28:52;;;;;;;12.23;2.50;;;;;;;25.60;37.20;100672.28;1426710;91;21332;-86
2022/06/16 08:31:20;;;;;;;11.77;2.43;;;;;;;25.85;37.46;100682.83;1391927;93;21413;-87
2022/06/16 08:33:51;;;;;;;6.37;2.50;;;;;;;25.85;37.46;100682.83;1416659;90;21907;-86
2022/06/16 08:36:19;;;;;;;8.18;2.22;;;;;;;25.95;36.87;100678.66;1422469;90;21353;-86
2022/06/16 08:38:46;;;;;;;9.70;3.80;;;;;;;26.11;36.45;100679.23;1427689;89;21943;-87
2022/06/16 08:41:23;;;;;;;6.62;2.10;;;;;;;26.29;36.31;100682.24;1434283;90;21369;-86
2022/06/16 08:44:00;;;;;;;14.15;3.00;;;;;;;26.36;35.25;100681.56;1433596;90;22006;-80
2022/06/16 08:46:35;;;;;;;19.40;3.08;;;;;;;26.35;35.30;100681.26;1399105;92;23139;-84
2022/06/16 08:49:22;;;;;;;9.15;3.20;;;;;;;26.35;35.50;100683.97;1445143;90;21642;-85
2022/06/16 08:52:09;;;;;;;7.33;2.50;;;;;;;26.40;31.93;100678.63;1448121;90;21472;-85
2022/06/16 08:55:00;;;;;;;6.50;2.47;;;;;;;26.52;33.76;100679.94;1433954;90;21347;-84
2022/06/16 08:57:44;;;;;;;8.38;1.87;;;;;;;26.64;34.58;100681.20;1409368;92;22403;-85
2022/06/16 09:00:15;;;;;;;11.65;3.10;;;;;;;26.65;33.50;100682.33;1412896;92;21464;-81
2022/06/16 09:03:02;;;;;;;9.45;3.22;;;;;;;26.69;33.38;100685.36;1414014;91;21398;-82
2022/06/16 09:05:40;;;;;;;5.22;2.67;;;;;;;26.72;33.22;100681.61;1431862;90;21516;-78
2022/06/16 09:08:47;;;;;;;6.85;2.30;;;;;;;26.82;33.47;100678.23;1442321;90;21376;-77
2022/06/16 09:11:44;;;;;;;9.03;1.87;;;;;;;26.92;33.12;100681.08;1438692;90;21507;-78
2022/06/16 09:15:10;;;;;;;9.00;2.87;;;;;;;26.99;32.62;100677.67;1423381;89;21560;-78
2022/06/16 09:17:01;;;;;;;9.13;1.75;;;;;;;27.08;33.22;100672.62;1429786;89;23531;-78
2022/06/16 09:19:54;;;;;;;10.88;3.65;;;;;;;27.23;32.96;100670.67;1441750;91;22514;-78
2022/06/16 09:22:38;;;;;;;7.67;2.75;;;;;;;27.33;32.69;100665.34;1407378;92;21450;-78
2022/06/16 09:25:28;;;;;;;6.75;1.70;;;;;;;27.35;31.13;100665.11;1440568;89;21560;-78
2022/06/16 09:28:16;;;;;;;;;;;;;;;27.43;32.33;100669.56;1433805;90;21457;-79
2022/06/16 09:30:44;;;;;;;3.10;1.45;;;;;;;27.55;33.25;100663.17;1406035;92;20388;-78
2022/06/16 09:33:19;;;;;;;7.72;1.75;;;;;;;27.65;31.72;100666.02;1426546;91;23194;-78
2022/06/16 09:35:56;;;;;;;2.98;1.40;;;;;;;27.67;31.63;100670.64;1432241;89;21539;-78
2022/06/16 09:38:38;;;;;;;10.05;1.90;;;;;;;27.70;31.60;100663.33;1432262;90;22558;-79
2022/06/16 09:42:32;;;;;;;3.37;1.75;;;;;;;27.85;31.90;100658.62;1407506;91;21392;-78
2022/06/16 09:44:34;;;;;;;3.17;1.60;;;;;;;28.00;31.51;100657.97;1421351;90;22389;-85
2022/06/16 09:47:11;;;;;;;8.53;1.67;;;;;;;28.01;31.07;100657.69;1414726;90;21583;-87
2022/06/16 09:49:57;;;;;;;3.47;1.62;;;;;;;27.89;31.00;100659.22;1439594;90;21413;-87
2022/06/16 09:52:32;;;;;;;2.42;1.15;;;;;;;28.01;31.22;100657.69;1427595;91;21442;-87
2022/06/16 09:55:06;;;;;;;5.10;1.42;;;;;;;28.18;29.99;100663.02;1427610;90;22265;-87
2022/06/16 09:57:44;;;;;;;14.10;1.62;;;;;;;28.32;30.89;100650.62;1429923;89;21464;-82
2022/06/16 10:00:15;;;;;;;4.80;1.22;;;;;;;28.34;30.88;100649.83;1434201;89;22403;-87
2022/06/16 10:03:16;;;;;;;1.77;1.15;;;;;;;28.20;30.54;100654.61;1445565;89;21376;-87
2022/06/16 10:06:26;;;;;;;6.65;2.15;;;;;;;27.73;29.30;100656.02;1420190;89;21502;-84
2022/06/16 10:09:16;;;;;;;2.87;1.72;;;;;;;27.34;30.75;100649.34;1439604;90;22153;-85
2022/06/16 10:12:10;;;;;;;;;;;;;;;27.08;31.41;100652.80;1429997;91;21465;-85
2022/06/16 10:14:50;;;;;;;25.95;1.87;;;;;;;27.26;31.18;100644.36;1425612;89;20405;-86
2022/06/16 10:17:21;;;;;;;9.88;1.45;;;;;;;27.51;30.77;100640.31;1428797;89;21596;-82
2022/06/16 10:19:48;;;;;;;4.47;1.52;;;;;;;27.68;28.23;100635.60;1420478;90;21919;-82
2022/06/16 10:22:18;;;;;;;4.30;1.25;;;;;;;27.97;29.99;100640.80;1428840;90;21539;-88
2022/06/16 10:24:56;;;;;;;8.60;1.82;;;;;;;27.97;29.83;100637.54;1416144;91;22412;-89
2022/06/16 10:27:27;;;;;;;4.05;1.75;;;;;;;28.11;29.99;100633.86;1421623;92;21399;-89
2022/06/16 10:29:59;;;;;;;6.90;1.40;;;;;;;28.38;29.43;100631.61;1434002;90;21671;-90
2022/06/16 10:32:40;;;;;;;3.60;1.20;;;;;;;28.25;29.37;100635.58;1445405;90;21686;-89
2022/06/16 10:35:17;;;;;;;11.90;1.70;;;;;;;28.38;29.30;100631.61;1439357;89;21443;-90
2022/06/16 10:37:48;;;;;;;9.05;1.27;;;;;;;28.47;28.67;100637.69;1435992;90;21360;-87
2022/06/16 10:40:24;;;;;;;16.20;1.90;;;;;;;28.48;29.09;100637.95;1443805;90;21494;-88
2022/06/16 10:43:11;;;;;;;2.55;1.15;;;;;;;28.23;29.21;100630.41;1430922;90;22343;-88
2022/06/16 10:45:39;;;;;;;10.28;1.50;;;;;;;28.01;29.67;100631.85;1409526;91;22484;-87
2022/06/16 10:48:16;;;;;;;92.45;5.65;;;;;;;27.86;29.32;100633.89;1423780;91;21547;-86
2022/06/16 10:50:49;;;;;;;7.90;2.22;;;;;;;28.08;29.34;100624.83;1400434;93;22368;-87
2022/06/16 10:53:34;;;;;;;3.22;1.17;;;;;;;28.54;29.91;100629.28;1444569;90;21555;-87
2022/06/16 10:56:12;;;;;;;9.25;1.57;;;;;;;28.87;29.08;100626.77;1447371;90;22483;-87
2022/06/16 10:59:08;;;;;;;6.65;1.98;;;;;;;29.11;28.89;100629.91;1420375;92;21472;-87
2022/06/16 11:01:49;;;;;;;4.42;1.17;;;;;;;29.26;28.18;100629.69;1448222;89;21382;-88
2022/06/16 11:04:21;;;;;;;6.12;1.77;;;;;;;28.79;27.58;100628.09;1432803;90;21398;-87
2022/06/16 11:06:56;;;;;;;5.15;1.47;;;;;;;28.13;27.92;100627.59;1453930;90;21443;-87
2022/06/16 11:09:24;;;;;;;5.70;1.32;;;;;;;28.08;29.09;100624.83;1421059;92;21502;-88
2022/06/16 11:12:04;;;;;;;5.87;1.60;;;;;;;28.14;28.01;100621.09;1403285;92;22376;-87
2022/06/16 11:14:51;;;;;;;3.37;1.20;;;;;;;28.51;28.28;100617.56;1452201;89;21391;-87
2022/06/16 11:17:28;;;;;;;4.05;1.70;;;;;;;28.76;27.58;100610.91;1446918;90;21464;-88
2022/06/16 11:20:11;;;;;;;3.55;1.22;;;;;;;29.04;28.40;100606.19;1440635;90;21405;-88
2022/06/16 11:22:42;;;;;;;3.83;1.40;;;;;;;29.09;27.84;100609.45;1444820;90;21582;-87
2022/06/16 11:25:32;;;;;;;2.87;1.45;;;;;;;28.78;27.42;100612.84;1451699;90;21464;-88
2022/06/16 11:28:10;;;;;;;15.05;1.85;;;;;;;28.62;27.79;100601.58;1439952;90;21524;-87
2022/06/16 11:30:44;;;;;;;5.40;0.93;;;;;;;28.84;27.80;100600.62;1448931;90;21493;-87
2022/06/16 11:36:42;;;;;;;4.08;1.37;;;;;;;29.09;27.54;100592.59;1420720;91;21391;-87
2022/06/16 11:39:43;;;;;;;4.53;1.20;;;;;;;29.29;26.93;100589.63;1394046;92;23051;-87
2022/06/16 11:42:17;;;;;;;7.08;1.67;;;;;;;29.12;26.54;100593.42;1431344;91;22095;-88
2022/06/16 11:44:52;;;;;;;3.08;1.50;;;;;;;29.18;25.93;100591.53;1426111;91;22557;-87
2022/06/16 11:47:57;;;;;;;6.33;1.25;;;;;;;29.45;26.64;100585.32;1437814;91;22513;-85
2022/06/16 11:50:43;;;;;;;5.12;1.32;;;;;;;29.72;26.01;100593.02;1428612;91;21487;-87
2022/06/16 11:53:18;;;;;;;3.08;1.10;;;;;;;29.87;25.78;100587.60;1427884;89;22723;-87
2022/06/16 11:55:52;;;;;;;1.65;1.15;;;;;;;29.58;25.21;100581.82;1434603;89;21540;-87
2022/06/16 11:58:55;;;;;;;4.65;1.35;;;;;;;29.61;25.70;100580.73;1399268;91;21579;-87
2022/06/16 12:01:42;;;;;;;4.47;1.12;;;;;;;29.69;26.12;100579.37;1428638;91;21479;-87
2022/06/16 12:04:31;;;;;;;6.67;2.15;;;;;;;29.91;26.17;100570.95;1414853;91;22544;-95
2022/06/16 12:07:26;;;;;;;;;;;;;;;30.19;25.74;100576.95;1410412;91;22309;-89
2022/06/16 12:10:10;;;;;;;4.10;1.20;;;;;;;30.29;24.98;100571.48;1445016;89;20292;-89